sensor_id;sensor_type;location;lat;lon;timestamp;P1;durP1;ratioP1;P2;durP2;ratioP2
19739;SDS011;10027;51.066;13.768;2022-12-08T00:01:12;3.47;;;2.37;;
19739;SDS011;10027;51.066;13.768;2022-12-08T00:03:39;4.20;;;2.10;;
19739;SDS011;10027;51.066;13.768;2022-12-08T00:06:09;5.90;;;2.60;;
19739;SDS011;10027;51.066;13.768;2022-12-08T00:08:55;4.70;;;1.73;;
19739;SDS011;10027;51.066;13.768;2022-12-08T00:11:41;5.57;;;2.50;;
19739;SDS011;10027;51.066;13.768;2022-12-08T00:14:08;3.17;;;2.20;;
19739;SDS011;10027;51.066;13.768;2022-12-08T00:16:35;4.67;;;2.50;;
19739;SDS011;10027;51.066;13.768;2022-12-08T00:19:03;4.63;;;1.97;;
19739;SDS011;10027;51.066;13.768;2022-12-08T00:21:30;4.20;;;1.77;;
19739;SDS011;10027;51.066;13.768;2022-12-08T00:23:57;5.00;;;2.30;;
19739;SDS011;10027;51.066;13.768;2022-12-08T00:26:24;3.77;;;2.00;;
19739;SDS011;10027;51.066;13.768;2022-12-08T00:28:51;4.70;;;2.07;;
19739;SDS011;10027;51.066;13.768;2022-12-08T00:31:18;4.17;;;2.30;;
19739;SDS011;10027;51.066;13.768;2022-12-08T00:33:45;4.73;;;2.30;;
19739;SDS011;10027;51.066;13.768;2022-12-08T00:36:13;4.57;;;2.50;;
19739;SDS011;10027;51.066;13.768;2022-12-08T00:38:40;5.60;;;2.27;;
19739;SDS011;10027;51.066;13.768;2022-12-08T00:41:11;5.90;;;2.33;;
19739;SDS011;10027;51.066;13.768;2022-12-08T00:43:38;3.00;;;2.00;;
19739;SDS011;10027;51.066;13.768;2022-12-08T00:46:06;4.77;;;2.30;;
19739;SDS011;10027;51.066;13.768;2022-12-08T00:48:33;3.27;;;2.23;;
19739;SDS011;10027;51.066;13.768;2022-12-08T00:51:00;4.67;;;2.20;;
19739;SDS011;10027;51.066;13.768;2022-12-08T00:53:27;3.80;;;2.10;;
19739;SDS011;10027;51.066;13.768;2022-12-08T00:55:55;4.93;;;2.33;;
19739;SDS011;10027;51.066;13.768;2022-12-08T00:58:23;4.90;;;2.10;;
19739;SDS011;10027;51.066;13.768;2022-12-08T01:00:50;3.60;;;2.23;;
19739;SDS011;10027;51.066;13.768;2022-12-08T01:03:17;5.73;;;2.10;;
19739;SDS011;10027;51.066;13.768;2022-12-08T01:05:44;4.10;;;2.00;;
19739;SDS011;10027;51.066;13.768;2022-12-08T01:08:11;6.90;;;2.10;;
19739;SDS011;10027;51.066;13.768;2022-12-08T01:10:38;2.80;;;1.87;;
19739;SDS011;10027;51.066;13.768;2022-12-08T01:13:05;4.27;;;2.00;;
19739;SDS011;10027;51.066;13.768;2022-12-08T01:15:32;3.53;;;2.13;;
19739;SDS011;10027;51.066;13.768;2022-12-08T01:18:00;2.73;;;1.97;;
19739;SDS011;10027;51.066;13.768;2022-12-08T01:20:28;3.67;;;2.10;;
19739;SDS011;10027;51.066;13.768;2022-12-08T01:22:55;3.13;;;1.90;;
19739;SDS011;10027;51.066;13.768;2022-12-08T01:25:22;4.17;;;2.07;;
19739;SDS011;10027;51.066;13.768;2022-12-08T01:27:50;5.53;;;2.33;;
19739;SDS011;10027;51.066;13.768;2022-12-08T01:30:18;4.80;;;2.00;;
19739;SDS011;10027;51.066;13.768;2022-12-08T01:32:45;2.83;;;2.03;;
19739;SDS011;10027;51.066;13.768;2022-12-08T01:35:12;3.53;;;2.03;;
19739;SDS011;10027;51.066;13.768;2022-12-08T01:37:39;3.67;;;2.30;;
19739;SDS011;10027;51.066;13.768;2022-12-08T01:40:06;4.93;;;2.20;;
19739;SDS011;10027;51.066;13.768;2022-12-08T01:42:34;4.77;;;2.00;;
19739;SDS011;10027;51.066;13.768;2022-12-08T01:45:12;3.37;;;2.17;;
19739;SDS011;10027;51.066;13.768;2022-12-08T01:47:40;3.60;;;2.30;;
19739;SDS011;10027;51.066;13.768;2022-12-08T01:50:09;3.47;;;2.40;;
19739;SDS011;10027;51.066;13.768;2022-12-08T01:52:41;3.53;;;2.20;;
19739;SDS011;10027;51.066;13.768;2022-12-08T01:55:16;4.93;;;2.53;;
19739;SDS011;10027;51.066;13.768;2022-12-08T01:57:48;5.17;;;2.20;;
19739;SDS011;10027;51.066;13.768;2022-12-08T02:00:17;4.40;;;2.50;;
19739;SDS011;10027;51.066;13.768;2022-12-08T02:03:01;4.57;;;2.70;;
19739;SDS011;10027;51.066;13.768;2022-12-08T02:05:32;4.77;;;2.47;;
19739;SDS011;10027;51.066;13.768;2022-12-08T02:08:00;6.40;;;2.30;;
19739;SDS011;10027;51.066;13.768;2022-12-08T02:10:31;4.90;;;2.50;;
19739;SDS011;10027;51.066;13.768;2022-12-08T02:12:59;4.23;;;2.40;;
19739;SDS011;10027;51.066;13.768;2022-12-08T02:15:38;4.60;;;2.47;;
19739;SDS011;10027;51.066;13.768;2022-12-08T02:21:14;5.10;;;2.70;;
19739;SDS011;10027;51.066;13.768;2022-12-08T02:23:51;4.60;;;2.40;;
19739;SDS011;10027;51.066;13.768;2022-12-08T02:34:11;4.60;;;2.67;;
19739;SDS011;10027;51.066;13.768;2022-12-08T02:42:07;5.57;;;2.70;;
19739;SDS011;10027;51.066;13.768;2022-12-08T02:45:23;6.10;;;2.80;;
19739;SDS011;10027;51.066;13.768;2022-12-08T02:47:23;9.57;;;2.90;;
19739;SDS011;10027;51.066;13.768;2022-12-08T02:49:51;4.03;;;2.03;;
19739;SDS011;10027;51.066;13.768;2022-12-08T02:54:46;4.97;;;2.20;;
19739;SDS011;10027;51.066;13.768;2022-12-08T02:57:28;5.03;;;2.57;;
19739;SDS011;10027;51.066;13.768;2022-12-08T03:02:33;4.07;;;2.53;;
19739;SDS011;10027;51.066;13.768;2022-12-08T03:10:15;8.80;;;2.50;;
19739;SDS011;10027;51.066;13.768;2022-12-08T03:12:48;8.07;;;2.50;;
19739;SDS011;10027;51.066;13.768;2022-12-08T03:15:17;4.03;;;2.27;;
19739;SDS011;10027;51.066;13.768;2022-12-08T03:17:46;4.10;;;2.00;;
19739;SDS011;10027;51.066;13.768;2022-12-08T03:20:18;3.60;;;2.20;;
19739;SDS011;10027;51.066;13.768;2022-12-08T03:22:46;6.00;;;2.57;;
19739;SDS011;10027;51.066;13.768;2022-12-08T03:25:16;5.10;;;2.70;;
19739;SDS011;10027;51.066;13.768;2022-12-08T03:27:45;3.80;;;2.53;;
19739;SDS011;10027;51.066;13.768;2022-12-08T03:30:12;5.60;;;2.30;;
19739;SDS011;10027;51.066;13.768;2022-12-08T03:32:52;4.43;;;2.50;;
19739;SDS011;10027;51.066;13.768;2022-12-08T03:35:25;2.87;;;1.97;;
19739;SDS011;10027;51.066;13.768;2022-12-08T03:38:08;4.60;;;2.20;;
19739;SDS011;10027;51.066;13.768;2022-12-08T03:40:36;2.50;;;1.87;;
19739;SDS011;10027;51.066;13.768;2022-12-08T03:43:03;4.43;;;2.13;;
19739;SDS011;10027;51.066;13.768;2022-12-08T03:45:30;4.17;;;2.60;;
19739;SDS011;10027;51.066;13.768;2022-12-08T03:47:57;3.70;;;2.13;;
19739;SDS011;10027;51.066;13.768;2022-12-08T03:50:24;3.77;;;2.40;;
19739;SDS011;10027;51.066;13.768;2022-12-08T03:52:52;5.90;;;2.70;;
19739;SDS011;10027;51.066;13.768;2022-12-08T03:55:19;3.70;;;2.27;;
19739;SDS011;10027;51.066;13.768;2022-12-08T03:57:46;3.83;;;2.37;;
19739;SDS011;10027;51.066;13.768;2022-12-08T04:00:14;4.00;;;2.57;;
19739;SDS011;10027;51.066;13.768;2022-12-08T04:02:42;4.70;;;2.50;;
19739;SDS011;10027;51.066;13.768;2022-12-08T04:05:09;4.87;;;2.63;;
19739;SDS011;10027;51.066;13.768;2022-12-08T04:07:36;3.73;;;2.40;;
19739;SDS011;10027;51.066;13.768;2022-12-08T04:10:03;5.17;;;2.63;;
19739;SDS011;10027;51.066;13.768;2022-12-08T04:12:31;5.17;;;2.63;;
19739;SDS011;10027;51.066;13.768;2022-12-08T04:14:58;8.83;;;2.77;;
19739;SDS011;10027;51.066;13.768;2022-12-08T04:17:25;3.90;;;2.50;;
19739;SDS011;10027;51.066;13.768;2022-12-08T04:19:53;6.33;;;3.00;;
19739;SDS011;10027;51.066;13.768;2022-12-08T04:22:20;5.53;;;2.83;;
19739;SDS011;10027;51.066;13.768;2022-12-08T04:24:47;4.07;;;2.83;;
19739;SDS011;10027;51.066;13.768;2022-12-08T04:27:14;6.13;;;2.87;;
19739;SDS011;10027;51.066;13.768;2022-12-08T04:29:41;4.03;;;2.60;;
19739;SDS011;10027;51.066;13.768;2022-12-08T04:32:08;3.80;;;2.50;;
19739;SDS011;10027;51.066;13.768;2022-12-08T04:34:35;5.13;;;2.63;;
19739;SDS011;10027;51.066;13.768;2022-12-08T04:37:02;3.53;;;2.67;;
19739;SDS011;10027;51.066;13.768;2022-12-08T04:39:29;7.10;;;2.90;;
19739;SDS011;10027;51.066;13.768;2022-12-08T04:41:57;4.53;;;2.60;;
19739;SDS011;10027;51.066;13.768;2022-12-08T04:44:24;5.37;;;2.80;;
19739;SDS011;10027;51.066;13.768;2022-12-08T04:46:51;3.60;;;2.40;;
19739;SDS011;10027;51.066;13.768;2022-12-08T04:49:18;5.60;;;2.87;;
19739;SDS011;10027;51.066;13.768;2022-12-08T04:51:45;4.73;;;3.23;;
19739;SDS011;10027;51.066;13.768;2022-12-08T04:54:12;6.10;;;2.80;;
19739;SDS011;10027;51.066;13.768;2022-12-08T04:56:39;4.10;;;2.70;;
19739;SDS011;10027;51.066;13.768;2022-12-08T04:59:06;3.67;;;2.60;;
19739;SDS011;10027;51.066;13.768;2022-12-08T05:01:34;4.23;;;2.90;;
19739;SDS011;10027;51.066;13.768;2022-12-08T05:04:01;4.40;;;2.57;;
19739;SDS011;10027;51.066;13.768;2022-12-08T05:06:28;5.47;;;3.27;;
19739;SDS011;10027;51.066;13.768;2022-12-08T05:08:55;3.67;;;2.80;;
19739;SDS011;10027;51.066;13.768;2022-12-08T05:11:22;5.63;;;3.00;;
19739;SDS011;10027;51.066;13.768;2022-12-08T05:13:50;5.27;;;3.13;;
19739;SDS011;10027;51.066;13.768;2022-12-08T05:16:17;5.57;;;3.67;;
19739;SDS011;10027;51.066;13.768;2022-12-08T05:18:44;5.30;;;3.37;;
19739;SDS011;10027;51.066;13.768;2022-12-08T05:21:11;4.90;;;2.90;;
19739;SDS011;10027;51.066;13.768;2022-12-08T05:23:38;5.73;;;3.27;;
19739;SDS011;10027;51.066;13.768;2022-12-08T05:26:05;5.37;;;3.37;;
19739;SDS011;10027;51.066;13.768;2022-12-08T05:28:32;5.87;;;3.17;;
19739;SDS011;10027;51.066;13.768;2022-12-08T05:31:09;6.07;;;3.40;;
19739;SDS011;10027;51.066;13.768;2022-12-08T05:33:36;4.87;;;3.43;;
19739;SDS011;10027;51.066;13.768;2022-12-08T05:36:04;4.40;;;2.90;;
19739;SDS011;10027;51.066;13.768;2022-12-08T05:38:31;5.40;;;3.33;;
19739;SDS011;10027;51.066;13.768;2022-12-08T05:40:58;4.50;;;2.93;;
19739;SDS011;10027;51.066;13.768;2022-12-08T05:43:25;5.90;;;3.30;;
19739;SDS011;10027;51.066;13.768;2022-12-08T05:45:52;3.97;;;2.93;;
19739;SDS011;10027;51.066;13.768;2022-12-08T05:48:19;5.07;;;3.07;;
19739;SDS011;10027;51.066;13.768;2022-12-08T05:50:47;4.93;;;3.40;;
19739;SDS011;10027;51.066;13.768;2022-12-08T05:53:14;5.87;;;3.17;;
19739;SDS011;10027;51.066;13.768;2022-12-08T05:55:42;6.77;;;3.50;;
19739;SDS011;10027;51.066;13.768;2022-12-08T05:58:11;4.27;;;2.90;;
19739;SDS011;10027;51.066;13.768;2022-12-08T06:00:39;5.70;;;3.70;;
19739;SDS011;10027;51.066;13.768;2022-12-08T06:03:06;7.73;;;4.03;;
19739;SDS011;10027;51.066;13.768;2022-12-08T06:05:33;8.00;;;4.80;;
19739;SDS011;10027;51.066;13.768;2022-12-08T06:08:00;7.13;;;3.80;;
19739;SDS011;10027;51.066;13.768;2022-12-08T06:10:28;7.00;;;4.33;;
19739;SDS011;10027;51.066;13.768;2022-12-08T06:12:55;7.10;;;4.70;;
19739;SDS011;10027;51.066;13.768;2022-12-08T06:15:22;12.93;;;6.87;;
19739;SDS011;10027;51.066;13.768;2022-12-08T06:17:49;6.63;;;4.00;;
19739;SDS011;10027;51.066;13.768;2022-12-08T06:20:16;5.77;;;3.90;;
19739;SDS011;10027;51.066;13.768;2022-12-08T06:22:43;8.00;;;4.37;;
19739;SDS011;10027;51.066;13.768;2022-12-08T06:25:11;6.70;;;4.20;;
19739;SDS011;10027;51.066;13.768;2022-12-08T06:27:38;5.30;;;3.70;;
19739;SDS011;10027;51.066;13.768;2022-12-08T06:30:05;6.50;;;4.07;;
19739;SDS011;10027;51.066;13.768;2022-12-08T06:32:32;7.40;;;4.03;;
19739;SDS011;10027;51.066;13.768;2022-12-08T06:35:00;11.10;;;5.40;;
19739;SDS011;10027;51.066;13.768;2022-12-08T06:37:27;13.33;;;5.47;;
19739;SDS011;10027;51.066;13.768;2022-12-08T06:39:54;8.00;;;4.13;;
19739;SDS011;10027;51.066;13.768;2022-12-08T06:42:21;14.17;;;5.13;;
19739;SDS011;10027;51.066;13.768;2022-12-08T06:45:07;8.70;;;4.37;;
19739;SDS011;10027;51.066;13.768;2022-12-08T06:47:35;8.87;;;4.33;;
19739;SDS011;10027;51.066;13.768;2022-12-08T06:50:02;8.13;;;4.30;;
19739;SDS011;10027;51.066;13.768;2022-12-08T06:52:29;6.13;;;3.97;;
19739;SDS011;10027;51.066;13.768;2022-12-08T06:54:57;5.73;;;3.73;;
19739;SDS011;10027;51.066;13.768;2022-12-08T06:57:24;5.13;;;3.67;;
19739;SDS011;10027;51.066;13.768;2022-12-08T06:59:51;6.73;;;4.00;;
19739;SDS011;10027;51.066;13.768;2022-12-08T07:02:18;6.27;;;3.73;;
19739;SDS011;10027;51.066;13.768;2022-12-08T07:04:45;10.03;;;5.97;;
19739;SDS011;10027;51.066;13.768;2022-12-08T07:07:12;10.53;;;5.47;;
19739;SDS011;10027;51.066;13.768;2022-12-08T07:09:39;6.40;;;4.03;;
19739;SDS011;10027;51.066;13.768;2022-12-08T07:12:06;9.13;;;4.70;;
19739;SDS011;10027;51.066;13.768;2022-12-08T07:14:33;6.90;;;3.73;;
19739;SDS011;10027;51.066;13.768;2022-12-08T07:17:01;9.30;;;5.17;;
19739;SDS011;10027;51.066;13.768;2022-12-08T07:19:28;6.23;;;3.90;;
19739;SDS011;10027;51.066;13.768;2022-12-08T07:21:55;9.10;;;3.97;;
19739;SDS011;10027;51.066;13.768;2022-12-08T07:24:22;8.40;;;4.63;;
19739;SDS011;10027;51.066;13.768;2022-12-08T07:26:49;7.80;;;4.17;;
19739;SDS011;10027;51.066;13.768;2022-12-08T07:29:16;7.90;;;4.23;;
19739;SDS011;10027;51.066;13.768;2022-12-08T07:31:51;10.20;;;4.60;;
19739;SDS011;10027;51.066;13.768;2022-12-08T07:34:18;7.87;;;4.40;;
19739;SDS011;10027;51.066;13.768;2022-12-08T07:36:45;9.03;;;4.70;;
19739;SDS011;10027;51.066;13.768;2022-12-08T07:39:12;7.90;;;4.43;;
19739;SDS011;10027;51.066;13.768;2022-12-08T07:41:39;10.10;;;4.37;;
19739;SDS011;10027;51.066;13.768;2022-12-08T07:44:07;7.77;;;3.83;;
19739;SDS011;10027;51.066;13.768;2022-12-08T07:46:34;8.23;;;4.37;;
19739;SDS011;10027;51.066;13.768;2022-12-08T07:49:01;7.80;;;4.40;;
19739;SDS011;10027;51.066;13.768;2022-12-08T07:51:28;7.10;;;4.23;;
19739;SDS011;10027;51.066;13.768;2022-12-08T07:53:55;8.70;;;4.67;;
19739;SDS011;10027;51.066;13.768;2022-12-08T07:56:22;7.60;;;4.43;;
19739;SDS011;10027;51.066;13.768;2022-12-08T07:58:50;7.57;;;4.23;;
19739;SDS011;10027;51.066;13.768;2022-12-08T08:01:24;7.43;;;4.57;;
19739;SDS011;10027;51.066;13.768;2022-12-08T08:03:53;7.53;;;4.47;;
19739;SDS011;10027;51.066;13.768;2022-12-08T08:06:20;5.90;;;3.60;;
19739;SDS011;10027;51.066;13.768;2022-12-08T08:08:47;6.07;;;4.17;;
19739;SDS011;10027;51.066;13.768;2022-12-08T08:11:14;7.33;;;4.50;;
19739;SDS011;10027;51.066;13.768;2022-12-08T08:13:47;5.07;;;3.70;;
19739;SDS011;10027;51.066;13.768;2022-12-08T08:16:14;5.77;;;3.73;;
19739;SDS011;10027;51.066;13.768;2022-12-08T08:18:41;6.27;;;4.03;;
19739;SDS011;10027;51.066;13.768;2022-12-08T08:21:09;6.13;;;3.80;;
19739;SDS011;10027;51.066;13.768;2022-12-08T08:23:56;7.83;;;4.07;;
19739;SDS011;10027;51.066;13.768;2022-12-08T08:26:23;9.60;;;4.27;;
19739;SDS011;10027;51.066;13.768;2022-12-08T08:28:50;6.73;;;3.80;;
19739;SDS011;10027;51.066;13.768;2022-12-08T08:31:17;9.37;;;5.00;;
19739;SDS011;10027;51.066;13.768;2022-12-08T08:33:44;5.07;;;3.60;;
19739;SDS011;10027;51.066;13.768;2022-12-08T08:36:13;9.30;;;4.37;;
19739;SDS011;10027;51.066;13.768;2022-12-08T08:38:40;7.27;;;3.70;;
19739;SDS011;10027;51.066;13.768;2022-12-08T08:41:09;5.77;;;4.10;;
19739;SDS011;10027;51.066;13.768;2022-12-08T08:43:37;5.63;;;3.80;;
19739;SDS011;10027;51.066;13.768;2022-12-08T08:46:04;6.07;;;4.23;;
19739;SDS011;10027;51.066;13.768;2022-12-08T08:48:32;5.67;;;3.67;;
19739;SDS011;10027;51.066;13.768;2022-12-08T08:51:05;7.33;;;3.63;;
19739;SDS011;10027;51.066;13.768;2022-12-08T08:53:33;7.87;;;3.43;;
19739;SDS011;10027;51.066;13.768;2022-12-08T08:56:00;6.33;;;4.10;;
19739;SDS011;10027;51.066;13.768;2022-12-08T08:58:28;16.53;;;7.67;;
19739;SDS011;10027;51.066;13.768;2022-12-08T09:00:55;18.03;;;7.80;;
19739;SDS011;10027;51.066;13.768;2022-12-08T09:03:22;11.53;;;6.10;;
19739;SDS011;10027;51.066;13.768;2022-12-08T09:05:49;8.77;;;4.97;;
19739;SDS011;10027;51.066;13.768;2022-12-08T09:08:16;10.57;;;5.73;;
19739;SDS011;10027;51.066;13.768;2022-12-08T09:10:44;10.47;;;5.53;;
19739;SDS011;10027;51.066;13.768;2022-12-08T09:13:11;7.57;;;4.57;;
19739;SDS011;10027;51.066;13.768;2022-12-08T09:15:38;7.90;;;5.07;;
19739;SDS011;10027;51.066;13.768;2022-12-08T09:18:06;7.77;;;4.43;;
19739;SDS011;10027;51.066;13.768;2022-12-08T09:20:33;10.37;;;4.93;;
19739;SDS011;10027;51.066;13.768;2022-12-08T09:23:01;8.20;;;5.07;;
19739;SDS011;10027;51.066;13.768;2022-12-08T09:25:28;7.10;;;4.50;;
19739;SDS011;10027;51.066;13.768;2022-12-08T09:27:55;10.30;;;4.63;;
19739;SDS011;10027;51.066;13.768;2022-12-08T09:30:22;7.10;;;4.53;;
19739;SDS011;10027;51.066;13.768;2022-12-08T09:32:49;8.17;;;4.50;;
19739;SDS011;10027;51.066;13.768;2022-12-08T09:35:16;7.13;;;4.17;;
19739;SDS011;10027;51.066;13.768;2022-12-08T09:37:43;7.00;;;4.37;;
19739;SDS011;10027;51.066;13.768;2022-12-08T09:40:13;7.00;;;4.70;;
19739;SDS011;10027;51.066;13.768;2022-12-08T09:45:12;6.87;;;4.23;;
19739;SDS011;10027;51.066;13.768;2022-12-08T09:47:43;7.30;;;4.20;;
19739;SDS011;10027;51.066;13.768;2022-12-08T09:50:18;5.57;;;3.87;;
19739;SDS011;10027;51.066;13.768;2022-12-08T09:52:56;7.13;;;4.37;;
19739;SDS011;10027;51.066;13.768;2022-12-08T09:55:31;7.00;;;4.00;;
19739;SDS011;10027;51.066;13.768;2022-12-08T09:58:00;6.13;;;4.20;;
19739;SDS011;10027;51.066;13.768;2022-12-08T10:00:28;5.33;;;4.07;;
19739;SDS011;10027;51.066;13.768;2022-12-08T10:02:56;6.73;;;4.43;;
19739;SDS011;10027;51.066;13.768;2022-12-08T10:05:23;5.30;;;3.57;;
19739;SDS011;10027;51.066;13.768;2022-12-08T10:10:38;5.70;;;4.40;;
19739;SDS011;10027;51.066;13.768;2022-12-08T10:13:15;6.30;;;4.17;;
19739;SDS011;10027;51.066;13.768;2022-12-08T10:18:14;9.23;;;4.10;;
19739;SDS011;10027;51.066;13.768;2022-12-08T10:20:42;6.33;;;4.23;;
19739;SDS011;10027;51.066;13.768;2022-12-08T10:25:42;8.73;;;4.00;;
19739;SDS011;10027;51.066;13.768;2022-12-08T10:28:10;6.87;;;4.37;;
19739;SDS011;10027;51.066;13.768;2022-12-08T10:30:38;5.77;;;3.93;;
19739;SDS011;10027;51.066;13.768;2022-12-08T10:33:08;6.63;;;3.93;;
19739;SDS011;10027;51.066;13.768;2022-12-08T10:35:46;6.10;;;3.97;;
19739;SDS011;10027;51.066;13.768;2022-12-08T10:38:17;5.43;;;4.00;;
19739;SDS011;10027;51.066;13.768;2022-12-08T10:40:45;5.63;;;3.93;;
19739;SDS011;10027;51.066;13.768;2022-12-08T10:43:13;5.67;;;4.03;;
19739;SDS011;10027;51.066;13.768;2022-12-08T10:45:43;6.80;;;4.10;;
19739;SDS011;10027;51.066;13.768;2022-12-08T10:48:17;6.80;;;4.43;;
19739;SDS011;10027;51.066;13.768;2022-12-08T10:53:19;5.57;;;4.03;;
19739;SDS011;10027;51.066;13.768;2022-12-08T10:58:25;5.40;;;3.73;;
19739;SDS011;10027;51.066;13.768;2022-12-08T11:00:53;7.27;;;4.50;;
19739;SDS011;10027;51.066;13.768;2022-12-08T11:03:25;5.70;;;3.80;;
19739;SDS011;10027;51.066;13.768;2022-12-08T11:05:56;7.37;;;4.13;;
19739;SDS011;10027;51.066;13.768;2022-12-08T11:08:30;6.47;;;3.80;;
19739;SDS011;10027;51.066;13.768;2022-12-08T11:10:57;5.47;;;3.30;;
19739;SDS011;10027;51.066;13.768;2022-12-08T11:13:25;7.80;;;4.27;;
19739;SDS011;10027;51.066;13.768;2022-12-08T11:15:53;6.00;;;3.73;;
19739;SDS011;10027;51.066;13.768;2022-12-08T11:18:24;5.60;;;3.60;;
19739;SDS011;10027;51.066;13.768;2022-12-08T11:20:58;6.17;;;3.60;;
19739;SDS011;10027;51.066;13.768;2022-12-08T11:23:26;5.50;;;3.23;;
19739;SDS011;10027;51.066;13.768;2022-12-08T11:25:55;6.53;;;3.90;;
19739;SDS011;10027;51.066;13.768;2022-12-08T11:28:23;5.37;;;3.67;;
19739;SDS011;10027;51.066;13.768;2022-12-08T11:30:53;5.47;;;3.73;;
19739;SDS011;10027;51.066;13.768;2022-12-08T11:33:21;4.87;;;3.43;;
19739;SDS011;10027;51.066;13.768;2022-12-08T11:35:59;5.93;;;3.40;;
19739;SDS011;10027;51.066;13.768;2022-12-08T11:38:28;4.03;;;3.27;;
19739;SDS011;10027;51.066;13.768;2022-12-08T11:41:06;4.40;;;3.10;;
19739;SDS011;10027;51.066;13.768;2022-12-08T11:43:50;5.53;;;2.63;;
19739;SDS011;10027;51.066;13.768;2022-12-08T11:46:26;5.23;;;2.73;;
19739;SDS011;10027;51.066;13.768;2022-12-08T11:49:05;3.83;;;3.00;;
19739;SDS011;10027;51.066;13.768;2022-12-08T11:54:25;4.30;;;3.00;;
19739;SDS011;10027;51.066;13.768;2022-12-08T11:56:56;3.87;;;2.60;;
19739;SDS011;10027;51.066;13.768;2022-12-08T11:59:26;4.30;;;2.70;;
19739;SDS011;10027;51.066;13.768;2022-12-08T12:01:55;3.43;;;2.40;;
19739;SDS011;10027;51.066;13.768;2022-12-08T12:04:34;2.90;;;2.40;;
19739;SDS011;10027;51.066;13.768;2022-12-08T12:07:51;4.43;;;2.50;;
19739;SDS011;10027;51.066;13.768;2022-12-08T12:12:30;3.93;;;2.90;;
19739;SDS011;10027;51.066;13.768;2022-12-08T12:20:16;2.83;;;2.30;;
19739;SDS011;10027;51.066;13.768;2022-12-08T12:22:45;3.60;;;2.53;;
19739;SDS011;10027;51.066;13.768;2022-12-08T12:25:18;2.97;;;2.23;;
19739;SDS011;10027;51.066;13.768;2022-12-08T12:27:46;3.30;;;2.20;;
19739;SDS011;10027;51.066;13.768;2022-12-08T12:30:22;2.50;;;2.07;;
19739;SDS011;10027;51.066;13.768;2022-12-08T12:32:54;3.40;;;2.40;;
19739;SDS011;10027;51.066;13.768;2022-12-08T12:37:55;2.90;;;2.17;;
19739;SDS011;10027;51.066;13.768;2022-12-08T12:40:23;3.50;;;2.50;;
19739;SDS011;10027;51.066;13.768;2022-12-08T12:45:24;5.57;;;2.60;;
19739;SDS011;10027;51.066;13.768;2022-12-08T13:03:46;3.43;;;2.40;;
19739;SDS011;10027;51.066;13.768;2022-12-08T13:06:20;3.30;;;2.47;;
19739;SDS011;10027;51.066;13.768;2022-12-08T13:08:51;4.23;;;2.83;;
19739;SDS011;10027;51.066;13.768;2022-12-08T13:11:19;3.10;;;2.43;;
19739;SDS011;10027;51.066;13.768;2022-12-08T13:13:56;3.83;;;2.70;;
19739;SDS011;10027;51.066;13.768;2022-12-08T13:16:25;3.20;;;2.20;;
19739;SDS011;10027;51.066;13.768;2022-12-08T13:18:59;3.83;;;2.50;;
19739;SDS011;10027;51.066;13.768;2022-12-08T13:21:36;4.10;;;2.93;;
19739;SDS011;10027;51.066;13.768;2022-12-08T13:26:49;4.23;;;2.67;;
19739;SDS011;10027;51.066;13.768;2022-12-08T13:29:20;4.00;;;2.80;;
19739;SDS011;10027;51.066;13.768;2022-12-08T13:34:21;2.53;;;2.30;;
19739;SDS011;10027;51.066;13.768;2022-12-08T13:39:24;4.63;;;2.73;;
19739;SDS011;10027;51.066;13.768;2022-12-08T13:42:03;3.37;;;2.63;;
19739;SDS011;10027;51.066;13.768;2022-12-08T13:44:54;3.73;;;2.70;;
19739;SDS011;10027;51.066;13.768;2022-12-08T13:47:44;4.10;;;2.73;;
19739;SDS011;10027;51.066;13.768;2022-12-08T13:50:38;3.80;;;2.60;;
19739;SDS011;10027;51.066;13.768;2022-12-08T13:53:27;4.37;;;2.80;;
19739;SDS011;10027;51.066;13.768;2022-12-08T13:56:15;4.77;;;2.70;;
19739;SDS011;10027;51.066;13.768;2022-12-08T13:59:07;4.47;;;2.83;;
19739;SDS011;10027;51.066;13.768;2022-12-08T14:01:38;4.20;;;2.77;;
19739;SDS011;10027;51.066;13.768;2022-12-08T14:04:11;3.33;;;2.37;;
19739;SDS011;10027;51.066;13.768;2022-12-08T14:07:00;5.00;;;2.90;;
19739;SDS011;10027;51.066;13.768;2022-12-08T14:09:32;4.57;;;2.70;;
19739;SDS011;10027;51.066;13.768;2022-12-08T14:12:02;2.90;;;2.40;;
19739;SDS011;10027;51.066;13.768;2022-12-08T14:14:31;3.27;;;2.27;;
19739;SDS011;10027;51.066;13.768;2022-12-08T14:17:19;5.37;;;2.60;;
19739;SDS011;10027;51.066;13.768;2022-12-08T14:19:57;3.70;;;2.53;;
19739;SDS011;10027;51.066;13.768;2022-12-08T14:22:30;4.13;;;2.50;;
19739;SDS011;10027;51.066;13.768;2022-12-08T14:24:57;3.33;;;2.43;;
19739;SDS011;10027;51.066;13.768;2022-12-08T14:27:25;4.13;;;2.73;;
19739;SDS011;10027;51.066;13.768;2022-12-08T14:29:54;4.07;;;2.50;;
19739;SDS011;10027;51.066;13.768;2022-12-08T14:34:50;4.17;;;2.57;;
19739;SDS011;10027;51.066;13.768;2022-12-08T14:37:17;3.80;;;2.70;;
19739;SDS011;10027;51.066;13.768;2022-12-08T14:39:44;3.20;;;2.47;;
19739;SDS011;10027;51.066;13.768;2022-12-08T14:42:24;4.27;;;2.57;;
19739;SDS011;10027;51.066;13.768;2022-12-08T14:44:59;4.67;;;2.73;;
19739;SDS011;10027;51.066;13.768;2022-12-08T14:47:30;3.87;;;2.70;;
19739;SDS011;10027;51.066;13.768;2022-12-08T14:49:58;5.47;;;2.70;;
19739;SDS011;10027;51.066;13.768;2022-12-08T14:52:25;4.80;;;2.60;;
19739;SDS011;10027;51.066;13.768;2022-12-08T14:54:52;3.57;;;2.57;;
19739;SDS011;10027;51.066;13.768;2022-12-08T14:57:20;3.90;;;2.37;;
19739;SDS011;10027;51.066;13.768;2022-12-08T14:59:47;3.83;;;2.70;;
19739;SDS011;10027;51.066;13.768;2022-12-08T15:04:47;4.10;;;2.70;;
19739;SDS011;10027;51.066;13.768;2022-12-08T15:07:16;4.50;;;2.73;;
19739;SDS011;10027;51.066;13.768;2022-12-08T15:09:45;3.93;;;2.60;;
19739;SDS011;10027;51.066;13.768;2022-12-08T15:19:54;5.90;;;3.00;;
19739;SDS011;10027;51.066;13.768;2022-12-08T15:22:21;6.73;;;3.07;;
19739;SDS011;10027;51.066;13.768;2022-12-08T15:24:49;5.63;;;3.30;;
19739;SDS011;10027;51.066;13.768;2022-12-08T15:27:16;4.33;;;2.57;;
19739;SDS011;10027;51.066;13.768;2022-12-08T15:29:45;6.00;;;2.60;;
19739;SDS011;10027;51.066;13.768;2022-12-08T15:32:12;3.90;;;2.73;;
19739;SDS011;10027;51.066;13.768;2022-12-08T15:34:41;4.60;;;2.90;;
19739;SDS011;10027;51.066;13.768;2022-12-08T15:37:22;5.40;;;2.87;;
19739;SDS011;10027;51.066;13.768;2022-12-08T15:39:49;4.73;;;2.70;;
19739;SDS011;10027;51.066;13.768;2022-12-08T15:42:16;4.80;;;2.63;;
19739;SDS011;10027;51.066;13.768;2022-12-08T15:44:43;4.53;;;2.77;;
19739;SDS011;10027;51.066;13.768;2022-12-08T15:47:14;3.90;;;2.43;;
19739;SDS011;10027;51.066;13.768;2022-12-08T15:49:42;4.70;;;2.67;;
19739;SDS011;10027;51.066;13.768;2022-12-08T15:52:14;7.53;;;2.67;;
19739;SDS011;10027;51.066;13.768;2022-12-08T15:54:41;5.77;;;2.90;;
19739;SDS011;10027;51.066;13.768;2022-12-08T15:57:15;5.00;;;2.63;;
19739;SDS011;10027;51.066;13.768;2022-12-08T15:59:50;3.80;;;2.70;;
19739;SDS011;10027;51.066;13.768;2022-12-08T16:02:17;3.60;;;2.30;;
19739;SDS011;10027;51.066;13.768;2022-12-08T16:04:48;4.53;;;2.50;;
19739;SDS011;10027;51.066;13.768;2022-12-08T16:07:35;3.80;;;2.70;;
19739;SDS011;10027;51.066;13.768;2022-12-08T16:10:03;3.53;;;2.30;;
19739;SDS011;10027;51.066;13.768;2022-12-08T16:12:32;3.77;;;2.70;;
19739;SDS011;10027;51.066;13.768;2022-12-08T16:15:41;6.57;;;2.83;;
19739;SDS011;10027;51.066;13.768;2022-12-08T16:18:25;6.03;;;2.60;;
19739;SDS011;10027;51.066;13.768;2022-12-08T16:20:52;5.07;;;2.60;;
19739;SDS011;10027;51.066;13.768;2022-12-08T16:23:40;3.70;;;2.27;;